Time;durP1;ratioP1;P1;durP2;ratioP2;P2;SDS_P1;SDS_P2;PMS_P1;PMS_P2;Temp;Humidity;BMP_temperature;BMP_pressure;BME280_temperature;BME280_humidity;BME280_pressure;Samples;Min_cycle;Max_cycle;Signal;HPM_P1;HPM_P2
2022/08/27 00:01:35;;;;;;;17.32;9.90;;;;;;;23.19;39.52;99146.19;1749672;82;21712;-45
2022/08/27 00:04:03;;;;;;;15.93;10.08;;;;;;;23.16;39.54;99151.86;1749938;82;21042;-45
2022/08/27 00:06:30;;;;;;;15.95;9.48;;;;;;;23.14;39.65;99157.08;1749731;82;20974;-45
2022/08/27 00:08:58;;;;;;;14.83;9.93;;;;;;;23.10;39.67;99150.27;1750108;82;21046;-45
2022/08/27 00:11:25;;;;;;;21.07;10.50;;;;;;;23.09;39.64;99161.80;1751034;82;21012;-45
2022/08/27 00:13:52;;;;;;;15.93;10.15;;;;;;;23.06;39.88;99153.78;1751507;82;21149;-45
2022/08/27 00:16:20;;;;;;;18.17;9.60;;;;;;;23.04;40.12;99156.84;1750064;82;21072;-45
2022/08/27 00:18:47;;;;;;;16.73;10.20;;;;;;;23.03;40.06;99156.67;1743462;81;21607;-45
2022/08/27 00:21:15;;;;;;;16.62;10.32;;;;;;;23.00;40.12;99161.70;1743677;82;21532;-45
2022/08/27 00:23:43;;;;;;;14.10;9.58;;;;;;;22.99;40.13;99160.95;1743469;82;21048;-44
2022/08/27 00:26:11;;;;;;;15.53;9.90;;;;;;;22.98;40.22;99160.02;1743715;81;21278;-45
2022/08/27 00:28:38;;;;;;;17.35;9.88;;;;;;;22.96;40.30;99163.98;1743625;82;20962;-45
2022/08/27 00:31:05;;;;;;;14.83;9.20;;;;;;;22.95;40.48;99158.29;1743561;81;20954;-45
2022/08/27 00:33:32;;;;;;;19.37;9.68;;;;;;;22.92;40.46;99155.66;1743774;81;21469;-45
2022/08/27 00:35:59;;;;;;;16.87;9.38;;;;;;;22.90;40.45;99156.09;1743736;82;21026;-44
2022/08/27 00:38:27;;;;;;;15.35;9.28;;;;;;;22.87;40.47;99155.62;1743609;82;21565;-45
2022/08/27 00:40:54;;;;;;;16.57;10.13;;;;;;;22.85;40.57;99162.19;1738318;82;20993;-45
2022/08/27 00:43:32;;;;;;;17.73;9.95;;;;;;;22.83;40.68;99157.73;1743359;81;21013;-45
2022/08/27 00:46:06;;;;;;;17.75;10.08;;;;;;;22.81;40.75;99156.63;1743435;82;20934;-44
2022/08/27 00:48:34;;;;;;;17.15;9.53;;;;;;;22.78;40.73;99164.44;1743388;82;21018;-44
2022/08/27 00:51:01;;;;;;;17.37;9.08;;;;;;;22.75;40.69;99157.80;1743420;82;21130;-45
2022/08/27 00:53:32;;;;;;;12.85;9.05;;;;;;;22.72;40.64;99155.94;1743279;81;21017;-44
2022/08/27 00:56:15;;;;;;;15.70;8.80;;;;;;;22.70;40.68;99158.97;1743358;82;20982;-44
2022/08/27 00:58:45;;;;;;;13.72;8.70;;;;;;;22.68;40.84;99157.25;1743403;81;20938;-44
2022/08/27 01:01:15;;;;;;;12.90;8.35;;;;;;;22.65;40.74;99158.92;1743467;81;21085;-44
2022/08/27 01:03:46;;;;;;;13.40;8.85;;;;;;;22.64;40.78;99155.98;1743742;81;21063;-44
2022/08/27 01:06:15;;;;;;;12.90;8.80;;;;;;;22.63;40.92;99157.80;1743734;82;21001;-45
2022/08/27 01:08:47;;;;;;;11.57;8.33;;;;;;;;;;1743653;81;20994;-45
2022/08/27 01:11:17;;;;;;;15.48;8.65;;;;;;;22.59;41.14;99151.62;1743281;82;21531;-45
2022/08/27 01:13:44;;;;;;;18.23;8.80;;;;;;;22.57;40.96;99150.69;1743663;82;20989;-44
2022/08/27 01:16:17;;;;;;;13.10;8.25;;;;;;;22.56;40.95;99156.04;1743588;81;21226;-44
2022/08/27 01:18:44;;;;;;;15.15;8.73;;;;;;;22.56;40.88;99163.58;1743367;81;21496;-44
2022/08/27 01:21:35;;;;;;;13.25;8.25;;;;;;;22.55;40.78;99154.52;1743435;81;21065;-45
2022/08/27 01:24:09;;;;;;;11.63;7.87;;;;;;;22.55;40.70;99155.90;1743507;81;20931;-45
2022/08/27 01:26:36;;;;;;;12.55;7.37;;;;;;;22.53;40.73;99158.32;1743589;81;20991;-45
2022/08/27 01:29:05;;;;;;;14.18;8.05;;;;;;;22.53;40.83;99164.63;1743800;81;21190;-45
2022/08/27 01:31:32;;;;;;;15.60;8.55;;;;;;;22.53;40.91;99156.94;1743556;81;21083;-45
2022/08/27 01:34:02;;;;;;;10.58;7.78;;;;;;;22.52;41.04;99160.91;1743739;82;20958;-45
2022/08/27 01:36:29;;;;;;;12.30;8.00;;;;;;;22.53;41.12;99163.24;1743486;81;20954;-44
2022/08/27 01:38:56;;;;;;;13.18;8.55;;;;;;;22.52;41.12;99156.77;1743607;82;21066;-45
2022/08/27 01:41:24;;;;;;;12.60;8.18;;;;;;;22.52;41.20;99165.06;1743460;82;23156;-45
2022/08/27 01:43:51;;;;;;;11.45;7.97;;;;;;;22.51;41.20;99151.11;1743270;82;20930;-45
2022/08/27 01:46:23;;;;;;;12.28;8.38;;;;;;;22.50;41.28;99150.33;1743579;82;20935;-44
2022/08/27 01:48:51;;;;;;;12.40;8.00;;;;;;;22.49;41.31;99145.23;1743360;82;21013;-45
2022/08/27 01:51:20;;;;;;;12.10;8.20;;;;;;;22.48;41.36;99143.69;1743469;82;21002;-45
2022/08/27 01:53:48;;;;;;;11.60;8.63;;;;;;;22.46;41.41;99148.91;1743181;82;23216;-44
2022/08/27 01:56:16;;;;;;;14.47;7.95;;;;;;;22.44;41.40;99152.70;1743305;82;20954;-45
2022/08/27 01:58:43;;;;;;;11.08;7.33;;;;;;;22.43;41.38;99154.69;1743473;81;20927;-44
2022/08/27 02:01:12;;;;;;;11.93;7.67;;;;;;;22.41;41.57;99149.46;1739058;81;21046;-45
2022/08/27 02:03:39;;;;;;;13.30;8.43;;;;;;;22.39;41.41;99153.27;1743614;82;21291;-45
2022/08/27 02:06:08;;;;;;;15.15;8.33;;;;;;;22.36;41.39;99150.80;1743409;81;21233;-45
2022/08/27 02:08:36;;;;;;;;;;;;;;;22.35;41.47;99141.56;1745974;81;21006;-45
2022/08/27 02:11:03;;;;;;;14.63;7.70;;;;;;;22.34;41.52;99146.31;1743537;82;20212;-45
2022/08/27 02:13:30;;;;;;;11.18;8.13;;;;;;;22.24;41.79;99146.04;1743304;82;20930;-45
2022/08/27 02:15:57;;;;;;;12.23;8.43;;;;;;;22.25;41.77;99151.73;1743421;81;20974;-45
2022/08/27 02:18:24;;;;;;;11.33;7.75;;;;;;;22.24;41.71;99147.42;1743329;81;21142;-45
2022/08/27 02:20:51;;;;;;;12.15;7.83;;;;;;;22.24;41.79;99153.55;1743297;82;21006;-45
2022/08/27 02:23:20;;;;;;;13.45;8.35;;;;;;;22.23;41.77;99152.00;1743452;82;20934;-45
2022/08/27 02:25:47;;;;;;;13.65;8.28;;;;;;;22.20;41.80;99152.29;1743498;81;21077;-45
2022/08/27 02:28:15;;;;;;;11.10;7.53;;;;;;;22.19;41.84;99151.34;1743612;81;21010;-45
2022/08/27 02:30:42;;;;;;;11.70;7.67;;;;;;;22.18;41.81;99157.47;1743388;82;21939;-45
2022/08/27 02:33:11;;;;;;;12.78;7.87;;;;;;;22.16;41.84;99160.52;1743491;82;21564;-44
2022/08/27 02:35:39;;;;;;;10.65;8.15;;;;;;;22.14;41.88;99153.27;1743408;82;21528;-45
2022/08/27 02:38:06;;;;;;;10.35;8.15;;;;;;;22.11;41.90;99159.09;1743503;82;20975;-45
2022/08/27 02:40:34;;;;;;;14.28;7.80;;;;;;;22.09;41.99;99167.02;1743384;82;21089;-44
2022/08/27 02:43:02;;;;;;;15.50;8.20;;;;;;;22.06;42.16;99159.03;1743326;81;21134;-45
2022/08/27 02:45:29;;;;;;;14.73;8.88;;;;;;;22.04;42.25;99165.59;1743236;82;20954;-45
2022/08/27 02:47:56;;;;;;;14.05;8.48;;;;;;;22.01;42.33;99160.96;1743125;82;21030;-45
2022/08/27 02:50:23;;;;;;;12.78;8.13;;;;;;;21.98;42.39;99154.92;1757757;81;20998;-45
2022/08/27 02:52:51;;;;;;;13.72;8.48;;;;;;;21.96;42.42;99161.52;1743454;81;21038;-45
2022/08/27 02:55:18;;;;;;;10.50;7.92;;;;;;;21.95;42.51;99157.20;1743007;81;23178;-45
2022/08/27 02:57:45;;;;;;;12.63;8.23;;;;;;;21.93;42.49;99154.70;1743229;82;20950;-45
2022/08/27 03:00:15;;;;;;;15.05;8.30;;;;;;;21.92;42.49;99155.91;1743407;81;21049;-44
2022/08/27 03:02:44;;;;;;;12.63;7.90;;;;;;;21.90;42.50;99160.48;1743527;82;21006;-45
2022/08/27 03:05:11;;;;;;;13.57;8.70;;;;;;;21.88;42.47;99149.09;1743794;82;21017;-45
2022/08/27 03:07:40;;;;;;;13.93;8.90;;;;;;;21.87;42.55;99146.19;1743400;82;21657;-45
2022/08/27 03:10:08;;;;;;;11.20;8.20;;;;;;;21.84;42.65;99149.03;1743313;82;20958;-45
2022/08/27 03:12:35;;;;;;;15.75;8.35;;;;;;;21.82;42.66;99145.95;1743668;82;20970;-45
2022/08/27 03:15:05;;;;;;;12.88;8.38;;;;;;;21.80;42.69;99140.87;1743570;82;20981;-45
2022/08/27 03:20:18;;;;;;;11.97;8.13;;;;;;;21.80;42.89;99146.99;1743460;82;21225;-45
2022/08/27 03:22:46;;;;;;;11.35;8.70;;;;;;;21.77;42.81;99148.66;1743411;82;21008;-45
2022/08/27 03:25:13;;;;;;;11.80;8.63;;;;;;;21.77;42.82;99150.04;1743405;82;20939;-45
2022/08/27 03:27:40;;;;;;;13.78;8.30;;;;;;;21.78;42.90;99150.81;1743636;81;20973;-45
2022/08/27 03:30:12;;;;;;;14.50;8.53;;;;;;;21.79;42.83;99148.98;1743685;81;21014;-45
2022/08/27 03:32:39;;;;;;;11.97;8.28;;;;;;;21.81;42.91;99147.94;1744028;81;21103;-45
2022/08/27 03:35:07;;;;;;;12.80;8.63;;;;;;;21.82;43.06;99150.09;1743739;82;21477;-45
2022/08/27 03:37:34;;;;;;;12.10;8.20;;;;;;;21.82;43.00;99152.86;1743897;82;21058;-45
2022/08/27 03:40:02;;;;;;;10.75;7.65;;;;;;;21.82;43.00;99153.63;1743486;81;20927;-45
2022/08/27 03:42:30;;;;;;;10.50;8.15;;;;;;;21.83;42.98;99144.14;1743785;81;21041;-45
2022/08/27 03:44:57;;;;;;;12.47;7.70;;;;;;;21.85;42.90;99150.59;1743538;82;21095;-44
2022/08/27 03:47:24;;;;;;;11.15;7.95;;;;;;;21.87;43.00;99148.95;1743382;82;20926;-44
2022/08/27 03:49:51;;;;;;;14.98;8.65;;;;;;;21.89;42.89;99146.50;1743285;82;21005;-45
2022/08/27 03:52:19;;;;;;;16.75;8.13;;;;;;;21.91;42.89;99145.47;1743444;81;21030;-45
2022/08/27 03:54:46;;;;;;;11.95;7.87;;;;;;;21.93;42.94;99144.44;1743419;82;20990;-45
2022/08/27 03:57:13;;;;;;;12.93;8.33;;;;;;;21.94;42.89;99143.23;1743434;81;21140;-44
2022/08/27 03:59:40;;;;;;;13.83;8.15;;;;;;;21.97;43.05;99138.22;1743368;81;20962;-44
2022/08/27 04:02:07;;;;;;;14.13;8.18;;;;;;;22.00;43.02;99140.69;1743450;81;20981;-45
2022/08/27 04:04:34;;;;;;;14.95;8.53;;;;;;;22.01;42.90;99138.10;1743481;82;20899;-45
2022/08/27 04:07:02;;;;;;;14.13;8.28;;;;;;;22.01;42.89;99134.73;1743614;82;21511;-45
2022/08/27 04:09:29;;;;;;;10.82;7.95;;;;;;;22.02;42.89;99139.05;1743507;82;21276;-45
2022/08/27 04:11:56;;;;;;;14.03;8.35;;;;;;;22.03;42.96;99138.42;1743462;82;20983;-44
2022/08/27 04:14:23;;;;;;;12.35;8.08;;;;;;;22.01;42.92;99131.98;1743478;82;21823;-45
2022/08/27 04:16:50;;;;;;;15.43;7.85;;;;;;;22.01;42.98;99127.84;1743429;82;21082;-44
2022/08/27 04:19:18;;;;;;;12.28;7.97;;;;;;;22.00;43.25;99129.05;1743547;82;21038;-45
2022/08/27 04:21:45;;;;;;;16.00;8.03;;;;;;;22.00;43.28;99128.27;1743564;82;21254;-45
2022/08/27 04:24:12;;;;;;;13.43;7.80;;;;;;;21.99;43.37;99123.35;1743571;81;20935;-45
2022/08/27 04:26:41;;;;;;;10.32;8.20;;;;;;;21.99;43.39;99126.11;1743426;82;21018;-45
2022/08/27 04:29:08;;;;;;;11.47;8.40;;;;;;;21.98;43.54;99119.64;1743882;82;20970;-45
2022/08/27 04:31:35;;;;;;;10.93;8.10;;;;;;;21.98;43.68;99119.05;1743570;82;20978;-45
2022/08/27 04:34:05;;;;;;;13.22;8.35;;;;;;;21.96;43.86;99110.45;1743576;81;21220;-45
2022/08/27 04:36:31;;;;;;;12.87;7.80;;;;;;;21.99;43.91;99116.45;1743581;81;20994;-45
2022/08/27 04:38:58;;;;;;;11.18;8.60;;;;;;;22.00;44.05;99109.72;1743334;81;21022;-45
2022/08/27 04:41:26;;;;;;;12.30;8.15;;;;;;;22.03;44.25;99107.45;1743407;82;20957;-45
2022/08/27 04:43:56;;;;;;;12.63;8.10;;;;;;;22.07;44.21;99108.09;1743301;81;21010;-45
2022/08/27 04:46:27;;;;;;;12.25;8.20;;;;;;;22.10;44.28;99107.23;1743446;81;21281;-45
2022/08/27 04:48:57;;;;;;;13.20;8.20;;;;;;;22.15;44.45;99110.05;1743577;80;20983;-45
2022/08/27 04:51:24;;;;;;;;;;;;;;;22.18;44.56;99116.66;1746067;81;20962;-45
2022/08/27 04:53:51;;;;;;;14.68;7.95;;;;;;;22.24;44.53;99110.75;1743367;81;20192;-45
2022/08/27 04:56:21;;;;;;;13.50;8.85;;;;;;;22.22;44.81;99110.44;1743431;81;21077;-45
2022/08/27 04:58:50;;;;;;;15.13;8.20;;;;;;;22.31;44.96;99105.00;1743889;82;21047;-45
2022/08/27 05:01:20;;;;;;;15.83;8.20;;;;;;;22.41;44.78;99103.88;1743305;82;21001;-45
2022/08/27 05:03:47;;;;;;;10.90;7.85;;;;;;;22.49;44.87;99116.23;1743291;81;21026;-45
2022/08/27 05:06:14;;;;;;;10.35;7.92;;;;;;;22.58;44.52;99114.94;1743295;82;21077;-45
2022/08/27 05:08:41;;;;;;;13.03;7.85;;;;;;;22.68;44.33;99115.80;1743563;81;21516;-45
2022/08/27 05:11:13;;;;;;;13.25;8.30;;;;;;;22.74;44.18;99116.20;1743276;81;23128;-45
2022/08/27 05:13:42;;;;;;;10.68;7.65;;;;;;;22.82;44.05;99109.80;1743306;81;20997;-44
2022/08/27 05:16:12;;;;;;;11.93;7.87;;;;;;;22.89;44.00;99113.11;1743829;81;21751;-44
2022/08/27 05:18:40;;;;;;;12.25;7.95;;;;;;;23.01;44.08;99109.34;1742873;81;21069;-44
2022/08/27 05:21:07;;;;;;;9.33;7.37;;;;;;;23.11;44.05;99105.42;1743713;82;21009;-45
2022/08/27 05:23:35;;;;;;;12.65;7.40;;;;;;;23.20;43.84;99105.48;1743534;82;21097;-45
2022/08/27 05:26:01;;;;;;;10.90;7.20;;;;;;;23.30;43.31;99101.55;1743452;82;21555;-45
2022/08/27 05:28:28;;;;;;;11.80;7.30;;;;;;;23.43;43.14;99105.64;1743676;81;21505;-45
2022/08/27 05:31:03;;;;;;;12.90;8.05;;;;;;;23.54;43.00;99097.72;1743436;82;21018;-45
2022/08/27 05:33:30;;;;;;;12.20;7.28;;;;;;;23.65;43.08;99091.95;1743849;82;21010;-45
2022/08/27 05:35:58;;;;;;;13.68;7.70;;;;;;;23.77;42.47;99094.45;1743522;82;21242;-45
2022/08/27 05:38:27;;;;;;;10.53;7.33;;;;;;;23.87;42.29;99096.67;1743267;81;20974;-44
2022/08/27 05:41:10;;;;;;;15.18;7.33;;;;;;;23.95;42.33;99095.16;1743706;82;20923;-45
2022/08/27 05:43:38;;;;;;;11.28;7.30;;;;;;;24.04;42.21;99096.56;1743695;82;22035;-45
2022/08/27 05:46:08;;;;;;;15.58;8.25;;;;;;;24.12;42.25;99104.73;1743581;82;21089;-45
2022/08/27 05:48:35;;;;;;;9.98;7.40;;;;;;;24.21;42.17;99106.95;1743636;81;21065;-45
2022/08/27 05:51:18;;;;;;;10.23;7.60;;;;;;;24.29;41.74;99107.45;1743272;82;21543;-45
2022/08/27 05:53:45;;;;;;;11.18;7.12;;;;;;;24.35;41.76;99111.13;1743665;82;20939;-45
2022/08/27 05:56:19;;;;;;;13.40;7.20;;;;;;;24.39;41.53;99121.48;1743209;82;21621;-45
2022/08/27 06:01:31;;;;;;;13.08;6.97;;;;;;;24.43;41.82;99118.55;1720677;81;21382;-45
2022/08/27 06:03:59;;;;;;;11.30;7.17;;;;;;;24.43;41.47;99124.87;1743914;82;21029;-45
2022/08/27 06:06:26;;;;;;;10.98;6.97;;;;;;;24.44;41.67;99127.80;1743349;82;20978;-44
2022/08/27 06:08:53;;;;;;;12.55;6.90;;;;;;;24.45;41.58;99129.32;1743321;81;21022;-45
2022/08/27 06:11:22;;;;;;;11.90;7.53;;;;;;;24.44;41.45;99127.80;1743438;82;21677;-44
2022/08/27 06:13:49;;;;;;;12.98;7.65;;;;;;;24.45;41.46;99132.09;1743309;81;22077;-45
2022/08/27 06:16:18;;;;;;;11.90;7.97;;;;;;;24.44;41.65;99129.80;1743158;82;21557;-45
2022/08/27 06:18:47;;;;;;;12.73;7.90;;;;;;;24.45;41.70;99131.32;1743188;81;20950;-45
2022/08/27 06:21:14;;;;;;;9.75;7.42;;;;;;;24.48;41.50;99129.81;1743318;82;20966;-45
2022/08/27 06:23:41;;;;;;;10.68;7.50;;;;;;;24.50;41.54;99125.95;1743037;82;21495;-45
2022/08/27 06:26:11;;;;;;;9.73;6.90;;;;;;;24.52;41.49;99120.73;1743550;81;21591;-44
2022/08/27 06:28:43;;;;;;;13.22;7.45;;;;;;;24.57;41.32;99122.89;1743165;81;21027;-44
2022/08/27 06:31:23;;;;;;;12.20;7.42;;;;;;;24.59;41.52;99123.19;1743394;82;21023;-44
2022/08/27 06:33:51;;;;;;;12.13;6.87;;;;;;;24.62;41.82;99127.83;1743697;82;21002;-44
2022/08/27 06:36:22;;;;;;;12.20;7.28;;;;;;;24.66;41.56;99120.12;1743667;82;21085;-45
2022/08/27 06:38:49;;;;;;;11.53;7.47;;;;;;;24.71;41.32;99120.75;1743537;81;21263;-45
2022/08/27 06:41:19;;;;;;;10.60;7.87;;;;;;;24.76;41.16;99121.52;1743499;82;20966;-45
2022/08/27 06:43:46;;;;;;;10.90;7.45;;;;;;;24.78;41.27;99120.45;1743737;82;20989;-45
2022/08/27 06:46:16;;;;;;;14.43;7.95;;;;;;;24.79;41.41;99119.20;1743426;82;21037;-45
2022/08/27 06:48:44;;;;;;;11.33;7.87;;;;;;;24.82;41.46;99114.14;1743790;82;21291;-44
2022/08/27 06:51:16;;;;;;;16.55;7.75;;;;;;;24.88;41.24;99115.10;1743520;82;21123;-45
2022/08/27 06:53:44;;;;;;;14.68;7.65;;;;;;;24.90;41.22;99114.00;1743650;81;21013;-44
2022/08/27 06:56:12;;;;;;;14.80;7.25;;;;;;;24.92;41.18;99111.55;1743638;82;21010;-45
2022/08/27 06:58:41;;;;;;;14.13;7.57;;;;;;;24.96;41.28;99121.26;1743832;81;21530;-44
2022/08/27 07:01:18;;;;;;;14.90;7.35;;;;;;;24.99;41.33;99120.94;1743587;82;21512;-45
2022/08/27 07:03:45;;;;;;;12.03;7.42;;;;;;;25.02;41.44;99117.25;1743207;81;21240;-44
2022/08/27 07:06:14;;;;;;;16.10;7.60;;;;;;;25.05;41.83;99114.31;1743493;81;20930;-45
2022/08/27 07:08:42;;;;;;;13.08;7.22;;;;;;;25.13;41.94;99117.53;1743969;82;21515;-45
2022/08/27 07:11:10;;;;;;;16.52;7.50;;;;;;;25.20;41.41;99113.07;1743751;82;20958;-45
2022/08/27 07:13:38;;;;;;;13.55;7.33;;;;;;;25.27;41.38;99119.67;1743624;82;21512;-45
2022/08/27 07:16:07;;;;;;;14.85;7.17;;;;;;;25.34;41.18;99118.59;1743813;81;22120;-45
2022/08/27 07:18:34;;;;;;;17.37;7.37;;;;;;;25.38;40.97;99107.48;1743544;82;27989;-45
2022/08/27 07:21:05;;;;;;;11.53;7.33;;;;;;;25.42;41.04;99108.09;1743690;81;21029;-44
2022/08/27 07:23:33;;;;;;;14.10;7.40;;;;;;;25.46;40.67;99107.30;1743425;82;21037;-44
2022/08/27 07:26:01;;;;;;;11.50;7.03;;;;;;;25.50;40.55;99112.09;1743567;82;21088;-45
2022/08/27 07:28:28;;;;;;;10.20;6.95;;;;;;;25.56;40.66;99103.17;1743447;82;21276;-45
2022/08/27 07:30:55;;;;;;;11.33;6.72;;;;;;;25.61;40.60;99103.93;1713758;82;21084;-44
2022/08/27 07:33:24;;;;;;;11.55;6.62;;;;;;;25.65;40.61;99098.36;1743607;81;21523;-44
2022/08/27 07:35:51;;;;;;;14.68;7.00;;;;;;;25.71;40.36;99102.64;1743252;82;21588;-44
2022/08/27 07:38:18;;;;;;;11.12;6.30;;;;;;;25.74;40.38;99095.55;1743380;82;21072;-45
2022/08/27 07:40:45;;;;;;;10.60;6.10;;;;;;;25.78;40.07;99093.37;1743303;81;21192;-44
2022/08/27 07:46:00;;;;;;;12.78;7.30;;;;;;;25.85;39.58;99093.02;1743455;82;20993;-45
2022/08/27 07:48:28;;;;;;;15.03;9.18;;;;;;;25.87;39.77;99091.94;1743644;82;21081;-45
2022/08/27 07:50:55;;;;;;;15.68;10.35;;;;;;;25.94;40.17;99089.45;1743422;82;21299;-45
2022/08/27 07:53:22;;;;;;;15.60;9.35;;;;;;;25.99;39.92;99088.81;1743900;81;21477;-45
2022/08/27 07:55:50;;;;;;;12.45;8.53;;;;;;;26.04;40.15;99090.95;1743562;81;20996;-45
2022/08/27 07:58:17;;;;;;;16.67;7.58;;;;;;;26.10;40.04;99083.48;1743672;82;21207;-45
2022/08/27 08:00:44;;;;;;;13.58;7.20;;;;;;;26.16;39.56;99085.78;1743423;82;21598;-45
2022/08/27 08:03:11;;;;;;;12.93;6.78;;;;;;;26.24;39.81;99085.59;1743671;81;21026;-45
2022/08/27 08:05:44;;;;;;;10.63;6.20;;;;;;;26.32;39.35;99088.19;1743653;81;20993;-45
2022/08/27 08:08:12;;;;;;;14.60;6.55;;;;;;;26.37;38.98;99100.05;1743449;82;21033;-45
2022/08/27 08:10:42;;;;;;;12.35;6.42;;;;;;;26.37;38.86;99079.20;1743321;81;20974;-44
2022/08/27 08:13:09;;;;;;;14.15;6.15;;;;;;;26.45;38.89;99089.95;1738638;81;21012;-45
2022/08/27 08:15:36;;;;;;;10.20;5.90;;;;;;;26.50;38.90;99086.52;1743415;82;21022;-44
2022/08/27 08:18:04;;;;;;;9.50;5.85;;;;;;;26.55;38.76;99086.64;1743297;82;23159;-44
2022/08/27 08:20:32;;;;;;;12.33;5.70;;;;;;;26.62;38.40;99088.30;1753641;81;21060;-45
2022/08/27 08:22:59;;;;;;;13.10;5.90;;;;;;;26.66;37.92;99095.84;1756908;81;21554;-44
2022/08/27 08:25:26;;;;;;;10.70;5.60;;;;;;;26.70;38.00;99090.86;1756730;81;21080;-44
2022/08/27 08:27:53;;;;;;;9.95;5.72;;;;;;;26.74;37.85;99080.31;1756756;81;21673;-45
2022/08/27 08:30:20;;;;;;;14.80;5.25;;;;;;;26.81;37.93;99071.62;1756762;81;21083;-45
2022/08/27 08:32:48;;;;;;;7.90;5.70;;;;;;;26.89;37.61;99069.25;1756555;81;21570;-44
2022/08/27 08:35:16;;;;;;;7.97;5.58;;;;;;;26.92;37.27;99064.11;1756826;81;20898;-45
2022/08/27 08:37:44;;;;;;;10.13;5.55;;;;;;;26.92;37.25;99071.84;1756859;81;23406;-44
2022/08/27 08:40:26;;;;;;;10.85;5.37;;;;;;;26.95;37.17;99065.95;1756819;81;21068;-44
2022/08/27 08:42:54;;;;;;;13.50;5.33;;;;;;;26.99;36.83;99063.75;1720057;83;23364;-45
2022/08/27 08:45:25;;;;;;;11.90;5.72;;;;;;;27.04;36.76;99058.91;1720706;83;21012;-45
2022/08/27 08:47:58;;;;;;;8.13;5.17;;;;;;;27.06;36.76;99053.00;1720843;83;20973;-44
2022/08/27 08:50:37;;;;;;;9.65;5.42;;;;;;;27.10;36.81;99050.82;1711317;83;21040;-45
2022/08/27 08:53:34;;;;;;;11.57;5.87;;;;;;;27.14;37.01;99052.78;1720925;83;21526;-44
2022/08/27 08:56:04;;;;;;;10.72;5.12;;;;;;;27.20;37.06;99064.80;1720797;83;21590;-45
2022/08/27 08:58:58;;;;;;;7.83;4.95;;;;;;;27.25;36.80;99066.88;1720816;83;21009;-45
2022/08/27 09:01:25;;;;;;;13.28;5.22;;;;;;;27.34;36.11;99070.83;1720704;83;20996;-44
2022/08/27 09:03:59;;;;;;;8.05;4.30;;;;;;;27.40;34.67;99067.53;1720840;83;20915;-45
2022/08/27 09:06:37;;;;;;;7.62;4.95;;;;;;;27.44;34.02;99063.92;1720889;83;21005;-44
2022/08/27 09:09:26;;;;;;;10.50;4.42;;;;;;;27.48;33.45;99061.70;1720623;83;21181;-44
2022/08/27 09:12:14;;;;;;;9.98;4.75;;;;;;;27.50;33.71;99059.22;1720823;83;20921;-45
2022/08/27 09:14:55;;;;;;;7.83;4.45;;;;;;;27.52;33.43;99065.85;1694405;83;21087;-45
2022/08/27 09:17:22;;;;;;;9.18;4.92;;;;;;;27.51;33.72;99064.94;1720710;83;21012;-44
2022/08/27 09:19:49;;;;;;;8.25;4.35;;;;;;;27.52;33.75;99061.67;1716202;83;21037;-45
2022/08/27 09:22:52;;;;;;;10.75;4.95;;;;;;;27.53;33.92;99058.27;1707656;84;21299;-45
2022/08/27 09:25:32;;;;;;;9.63;4.30;;;;;;;27.56;33.85;99060.08;1743346;81;21014;-44
2022/08/27 09:28:03;;;;;;;6.75;4.45;;;;;;;27.55;33.77;99057.15;1743755;81;21029;-45
2022/08/27 09:30:34;;;;;;;7.62;4.58;;;;;;;27.55;33.95;99062.72;1743587;81;21558;-45
2022/08/27 09:33:03;;;;;;;7.83;4.45;;;;;;;27.57;34.04;99061.63;1743882;81;21008;-44
2022/08/27 09:35:43;;;;;;;11.40;4.65;;;;;;;27.60;33.84;99054.45;1743305;82;21128;-45
2022/08/27 09:38:12;;;;;;;9.03;4.60;;;;;;;27.64;33.77;99059.20;1743366;81;21496;-44
2022/08/27 09:40:49;;;;;;;8.35;4.53;;;;;;;27.65;34.01;99066.31;1743506;81;21028;-45
2022/08/27 09:43:23;;;;;;;8.70;4.40;;;;;;;27.65;34.17;99067.70;1743385;81;21006;-45
2022/08/27 09:45:58;;;;;;;7.35;4.90;;;;;;;27.66;34.41;99064.30;1743655;82;21005;-45
2022/08/27 09:48:29;;;;;;;13.68;4.95;;;;;;;27.66;34.38;99066.45;1743476;82;21223;-44
2022/08/27 09:51:08;;;;;;;8.73;4.62;;;;;;;27.66;34.25;99067.08;1743708;82;21574;-44
2022/08/27 09:53:53;;;;;;;;;;;;;;;27.61;34.22;99069.16;1731902;81;21017;-44
2022/08/27 09:56:30;;;;;;;8.55;5.10;;;;;;;27.56;34.41;99067.05;1743529;82;21586;-45
2022/08/27 09:59:10;;;;;;;8.35;5.47;;;;;;;27.46;34.94;99069.13;1743387;81;21548;-44
2022/08/27 10:01:53;;;;;;;10.93;4.65;;;;;;;27.49;34.99;99071.63;1743779;82;21096;-45
2022/08/27 10:04:28;;;;;;;11.80;5.03;;;;;;;27.53;35.09;99061.05;1734212;82;21508;-45
2022/08/27 10:06:55;;;;;;;11.28;5.03;;;;;;;27.58;34.59;99055.58;1743073;81;21599;-44
2022/08/27 10:09:35;;;;;;;10.10;5.00;;;;;;;27.65;34.82;99059.97;1743229;82;20965;-45
2022/08/27 10:12:13;;;;;;;12.50;4.95;;;;;;;27.72;34.52;99053.25;1738105;82;21029;-45
2022/08/27 10:14:45;;;;;;;7.37;4.55;;;;;;;27.80;34.27;99053.75;1704191;84;23193;-45
2022/08/27 10:17:23;;;;;;;9.73;4.85;;;;;;;27.92;33.94;99051.28;1707634;84;21017;-45
2022/08/27 10:20:27;;;;;;;7.97;4.62;;;;;;;28.05;34.16;99045.38;1743125;81;21002;-45
2022/08/27 10:23:23;;;;;;;9.48;4.50;;;;;;;28.30;33.79;99045.35;1743486;82;21591;-45
2022/08/27 10:26:03;;;;;;;13.03;5.17;;;;;;;28.72;32.99;99047.02;1735268;82;21516;-45
2022/08/27 10:29:12;;;;;;;12.90;4.75;;;;;;;29.17;32.42;99044.70;1743393;81;21101;-45
2022/08/27 10:35:26;;;;;;;9.68;5.25;;;;;;;30.04;31.23;99044.52;1829879;78;22402;-44
2022/08/27 10:38:13;;;;;;;9.63;4.92;;;;;;;30.21;31.00;99045.98;1802973;79;20999;-44
2022/08/27 10:41:01;;;;;;;10.75;5.15;;;;;;;30.45;30.65;99047.02;1803123;79;21119;-45
2022/08/27 10:43:49;;;;;;;12.63;5.10;;;;;;;30.62;30.76;99043.03;1803084;79;21482;-45
2022/08/27 10:46:48;;;;;;;11.70;5.15;;;;;;;30.84;30.05;99045.77;1803474;79;21520;-45
2022/08/27 10:49:42;;;;;;;13.53;5.33;;;;;;;31.03;29.64;99046.86;1802839;79;21019;-45
2022/08/27 10:52:15;;;;;;;12.28;5.40;;;;;;;31.19;29.83;99053.73;1803244;79;20963;-45
2022/08/27 10:55:00;;;;;;;13.30;5.35;;;;;;;31.23;29.71;99054.23;1803164;79;21230;-45
2022/08/27 10:57:51;;;;;;;10.88;5.08;;;;;;;31.23;29.72;99062.01;1803178;79;20963;-45
2022/08/27 11:00:20;;;;;;;13.05;4.90;;;;;;;31.18;29.45;99058.56;1803458;79;20970;-45
2022/08/27 11:02:54;;;;;;;9.77;5.07;;;;;;;31.01;30.03;99060.55;1803901;79;20955;-45
2022/08/27 11:05:46;;;;;;;11.05;4.83;;;;;;;30.92;30.35;99064.99;1803386;79;20994;-45
2022/08/27 11:08:24;;;;;;;13.25;5.92;;;;;;;30.84;30.66;99061.16;1803237;79;21961;-45
2022/08/27 11:10:55;;;;;;;11.10;5.53;;;;;;;30.77;30.83;99056.81;1784945;79;21018;-45
2022/08/27 11:13:33;;;;;;;19.00;5.92;;;;;;;30.75;30.90;99058.56;1803504;79;21013;-45
2022/08/27 11:16:02;;;;;;;12.43;5.08;;;;;;;30.75;31.26;99052.97;1797963;79;21011;-45
2022/08/27 11:18:48;;;;;;;11.53;5.35;;;;;;;30.75;31.73;99051.58;1803791;79;21042;-45
2022/08/27 11:21:40;;;;;;;9.88;5.33;;;;;;;30.79;31.81;99050.72;1799129;79;21131;-45
2022/08/27 11:24:42;;;;;;;16.10;5.92;;;;;;;30.82;32.04;99048.30;1797876;79;21230;-45
2022/08/27 11:27:09;;;;;;;16.02;5.47;;;;;;;30.98;31.53;99044.78;1803040;79;21054;-45
2022/08/27 11:30:03;;;;;;;16.10;5.45;;;;;;;31.27;31.31;99041.53;1803180;79;21043;-45
2022/08/27 11:32:45;;;;;;;13.08;5.78;;;;;;;31.64;31.03;99037.72;1803325;79;20980;-45
2022/08/27 11:35:23;;;;;;;14.45;5.95;;;;;;;32.05;29.70;99030.23;1793175;79;21114;-45
2022/08/27 11:38:01;;;;;;;21.82;5.92;;;;;;;32.38;28.80;99028.64;1792471;79;20944;-45
2022/08/27 11:40:39;;;;;;;14.50;6.10;;;;;;;32.61;28.22;99021.64;1791701;79;20908;-45
2022/08/27 11:43:08;;;;;;;16.90;5.83;;;;;;;32.76;27.63;99022.09;1792154;80;21059;-45
2022/08/27 11:45:39;;;;;;;18.57;5.75;;;;;;;32.84;26.61;99024.47;1792226;80;21609;-45
2022/08/27 11:48:26;;;;;;;14.85;4.85;;;;;;;32.83;25.85;99024.34;1791718;79;21206;-45
2022/08/27 11:51:03;;;;;;;11.50;4.33;;;;;;;32.94;24.52;99024.91;1791556;80;20944;-45
2022/08/27 11:53:44;;;;;;;11.45;4.17;;;;;;;33.26;23.77;99025.23;1791465;79;20956;-45
2022/08/27 11:56:22;;;;;;;10.13;3.90;;;;;;;33.72;21.42;99026.50;1790044;79;20998;-45
2022/08/27 11:58:49;;;;;;;17.75;4.05;;;;;;;34.21;20.34;99022.30;1777765;79;21082;-45